Pacific Hope — 3FLH6 — position and weather

sailwx.info

Track history (hours):
 
Tides and Currents Weather Stations Pressure Air Temp Water Temp Dewpoint Dewpoint Depression Visibility Wind Speed Wind Dir Waves Ship Positions

Pacific Hope

Last reported at 2017-Jul-23 22:39 UTC. Time now 2017-Jul-27 22:30 UTC.
Position N 01°15' E 104°03'.

Length 169 m; draft 9.8 m.

Type: Cargo ship. MMSI: 351849000.

Date/timePositionNaut miles runAvg speedWind from/ knotsBaromVisibWave heightAir tempDewpointWater temp
2017-Jul-23 22:39N 01°15' E 104°03'313.4
2017-Jul-23 22:27N 01°14' E 103°60'5 9.5
2017-Jul-23 21:54N 01°15' E 103°55'2 4.3
2017-Jul-23 21:30N 01°15' E 103°53'0 0.0
2017-Jul-23 14:48N 01°15' E 103°53'0 0.1
2017-Jul-23 14:20N 01°15' E 103°53'4 1.2
2017-Jul-23 10:52N 01°11' E 103°51'3 7.5
2017-Jul-23 10:29N 01°10' E 103°49'611.0
2017-Jul-23 09:58N 01°06' E 103°44'511.8
2017-Jul-23 09:30N 01°03' E 103°40'511.0
2017-Jul-23 09:00N 01°06' E 103°35'612.0
2017-Jul-23 08:30N 01°08' E 103°29'611.6
2017-Jul-23 08:00N 01°11' E 103°24'  
Track history (hours):
 
Tides and Currents Weather Stations Pressure Air Temp Water Temp Dewpoint Dewpoint Depression Visibility Wind Speed Wind Dir Waves Ship Positions

Pacific Hope

Last reported at 2017-Jul-23 22:39 UTC. Time now 2017-Jul-27 22:30 UTC.
Position N 01°15' E 104°03'.

Length 169 m; draft 9.8 m.

Type: Cargo ship. MMSI: 351849000.

Date/timePositionNaut miles runAvg speedWind from/ knotsBaromVisibWave heightAir tempDewpointWater temp
2017-Jul-23 22:39N 01°15' E 104°03'313.4
2017-Jul-23 22:27N 01°14' E 103°60'5 9.5
2017-Jul-23 21:54N 01°15' E 103°55'2 4.3
2017-Jul-23 21:30N 01°15' E 103°53'0 0.0
2017-Jul-23 14:48N 01°15' E 103°53'0 0.1
2017-Jul-23 14:20N 01°15' E 103°53'4 1.2
2017-Jul-23 10:52N 01°11' E 103°51'3 7.5
2017-Jul-23 10:29N 01°10' E 103°49'611.0
2017-Jul-23 09:58N 01°06' E 103°44'511.8
2017-Jul-23 09:30N 01°03' E 103°40'511.0
2017-Jul-23 09:00N 01°06' E 103°35'612.0
2017-Jul-23 08:30N 01°08' E 103°29'611.6
2017-Jul-23 08:00N 01°11' E 103°24'  

Dump ship's entire track history